sensor_id;sensor_type;location;lat;lon;timestamp;pressure;altitude;pressure_sealevel;temperature;humidity
42859;BME280;28505;56.970;40.998;2022-12-07T00:04:37;101394.72;;;-9.86;100.00
42859;BME280;28505;56.970;40.998;2022-12-07T00:09:59;101425.25;;;-9.66;100.00
42859;BME280;28505;56.970;40.998;2022-12-07T00:15:24;101399.00;;;-9.85;100.00
42859;BME280;28505;56.970;40.998;2022-12-07T00:20:50;101401.94;;;-9.79;100.00
42859;BME280;28505;56.970;40.998;2022-12-07T00:26:17;101409.50;;;-9.76;100.00
42859;BME280;28505;56.970;40.998;2022-12-07T00:31:40;101414.88;;;-9.77;100.00
42859;BME280;28505;56.970;40.998;2022-12-07T00:37:05;101395.09;;;-9.91;100.00
42859;BME280;28505;56.970;40.998;2022-12-07T00:42:28;101398.03;;;-9.84;100.00
42859;BME280;28505;56.970;40.998;2022-12-07T00:47:52;101404.47;;;-9.88;100.00
42859;BME280;28505;56.970;40.998;2022-12-07T00:53:15;101403.88;;;-9.92;100.00
42859;BME280;28505;56.970;40.998;2022-12-07T00:58:38;101417.50;;;-9.88;100.00
42859;BME280;28505;56.970;40.998;2022-12-07T01:04:03;101441.06;;;-9.79;100.00
42859;BME280;28505;56.970;40.998;2022-12-07T01:09:29;101438.38;;;-9.88;100.00
42859;BME280;28505;56.970;40.998;2022-12-07T01:14:51;101413.06;;;-10.09;100.00
42859;BME280;28505;56.970;40.998;2022-12-07T01:20:13;101435.56;;;-9.97;100.00
42859;BME280;28505;56.970;40.998;2022-12-07T01:25:37;101426.59;;;-10.15;100.00
42859;BME280;28505;56.970;40.998;2022-12-07T01:31:04;101416.59;;;-10.31;100.00
42859;BME280;28505;56.970;40.998;2022-12-07T01:36:32;101447.22;;;-10.12;100.00
42859;BME280;28505;56.970;40.998;2022-12-07T01:41:54;101429.28;;;-10.26;100.00
42859;BME280;28505;56.970;40.998;2022-12-07T01:47:16;101442.50;;;-10.18;100.00
42859;BME280;28505;56.970;40.998;2022-12-07T01:52:39;101444.38;;;-10.20;100.00
42859;BME280;28505;56.970;40.998;2022-12-07T01:58:03;101401.13;;;-10.55;100.00
42859;BME280;28505;56.970;40.998;2022-12-07T02:03:40;101442.56;;;-10.29;100.00
42859;BME280;28505;56.970;40.998;2022-12-07T02:09:03;101448.34;;;-10.37;100.00
42859;BME280;28505;56.970;40.998;2022-12-07T02:14:25;101451.69;;;-10.35;100.00
42859;BME280;28505;56.970;40.998;2022-12-07T02:20:11;101448.94;;;-10.33;100.00
42859;BME280;28505;56.970;40.998;2022-12-07T02:25:55;101454.91;;;-10.43;100.00
42859;BME280;28505;56.970;40.998;2022-12-07T02:31:23;101450.63;;;-10.55;100.00
42859;BME280;28505;56.970;40.998;2022-12-07T02:36:52;101447.91;;;-10.53;100.00
42859;BME280;28505;56.970;40.998;2022-12-07T02:42:20;101451.22;;;-10.51;100.00
42859;BME280;28505;56.970;40.998;2022-12-07T02:47:49;101448.28;;;-10.58;100.00
42859;BME280;28505;56.970;40.998;2022-12-07T03:04:52;101460.81;;;-10.63;100.00
42859;BME280;28505;56.970;40.998;2022-12-07T03:10:28;101423.63;;;-10.88;100.00
42859;BME280;28505;56.970;40.998;2022-12-07T03:21:47;101469.09;;;-10.69;100.00
42859;BME280;28505;56.970;40.998;2022-12-07T03:27:16;101437.25;;;-10.95;100.00
42859;BME280;28505;56.970;40.998;2022-12-07T03:33:10;101467.09;;;-10.77;100.00
42859;BME280;28505;56.970;40.998;2022-12-07T03:38:42;101469.84;;;-10.78;100.00
42859;BME280;28505;56.970;40.998;2022-12-07T03:44:07;101439.97;;;-10.97;100.00
42859;BME280;28505;56.970;40.998;2022-12-07T03:49:39;101441.03;;;-10.99;100.00
42859;BME280;28505;56.970;40.998;2022-12-07T03:55:27;101459.88;;;-10.85;100.00
42859;BME280;28505;56.970;40.998;2022-12-07T04:00:51;101390.69;;;-11.34;100.00
42859;BME280;28505;56.970;40.998;2022-12-07T04:06:13;101457.69;;;-11.02;100.00
42859;BME280;28505;56.970;40.998;2022-12-07T04:11:36;101419.56;;;-11.25;100.00
42859;BME280;28505;56.970;40.998;2022-12-07T04:17:06;101442.81;;;-11.11;100.00
42859;BME280;28505;56.970;40.998;2022-12-07T04:22:47;101437.31;;;-11.19;100.00
42859;BME280;28505;56.970;40.998;2022-12-07T04:29:09;101455.09;;;-11.13;100.00
42859;BME280;28505;56.970;40.998;2022-12-07T04:34:57;101438.75;;;-11.26;100.00
42859;BME280;28505;56.970;40.998;2022-12-07T04:40:35;101473.91;;;-11.10;100.00
42859;BME280;28505;56.970;40.998;2022-12-07T04:46:02;101458.06;;;-11.18;100.00
42859;BME280;28505;56.970;40.998;2022-12-07T04:52:01;101457.94;;;-11.16;100.00
42859;BME280;28505;56.970;40.998;2022-12-07T04:57:27;101445.59;;;-11.25;100.00
42859;BME280;28505;56.970;40.998;2022-12-07T05:03:04;101444.91;;;-11.27;100.00
42859;BME280;28505;56.970;40.998;2022-12-07T05:08:53;101474.66;;;-11.07;100.00
42859;BME280;28505;56.970;40.998;2022-12-07T05:14:18;101482.31;;;-11.06;100.00
42859;BME280;28505;56.970;40.998;2022-12-07T05:19:41;101460.75;;;-11.19;100.00
42859;BME280;28505;56.970;40.998;2022-12-07T05:25:04;101478.03;;;-11.18;100.00
42859;BME280;28505;56.970;40.998;2022-12-07T05:30:26;101474.38;;;-11.16;100.00
42859;BME280;28505;56.970;40.998;2022-12-07T05:35:48;101490.38;;;-11.09;100.00
42859;BME280;28505;56.970;40.998;2022-12-07T05:41:14;101451.84;;;-11.39;100.00
42859;BME280;28505;56.970;40.998;2022-12-07T05:46:55;101440.97;;;-11.44;100.00
42859;BME280;28505;56.970;40.998;2022-12-07T05:52:17;101488.22;;;-11.15;100.00
42859;BME280;28505;56.970;40.998;2022-12-07T05:57:39;101459.28;;;-11.35;100.00
42859;BME280;28505;56.970;40.998;2022-12-07T06:03:22;101494.50;;;-11.18;100.00
42859;BME280;28505;56.970;40.998;2022-12-07T06:08:44;101479.72;;;-11.17;100.00
42859;BME280;28505;56.970;40.998;2022-12-07T06:14:06;101484.00;;;-11.05;100.00
42859;BME280;28505;56.970;40.998;2022-12-07T06:19:31;101482.31;;;-11.06;100.00
42859;BME280;28505;56.970;40.998;2022-12-07T06:24:53;101482.56;;;-11.09;100.00
42859;BME280;28505;56.970;40.998;2022-12-07T06:30:15;101467.28;;;-11.14;100.00
42859;BME280;28505;56.970;40.998;2022-12-07T06:35:37;101482.81;;;-11.01;100.00
42859;BME280;28505;56.970;40.998;2022-12-07T06:40:59;101487.56;;;-10.83;100.00
42859;BME280;28505;56.970;40.998;2022-12-07T06:46:21;101489.59;;;-10.76;100.00
42859;BME280;28505;56.970;40.998;2022-12-07T06:51:44;101503.00;;;-10.58;100.00
42859;BME280;28505;56.970;40.998;2022-12-07T06:57:05;101515.56;;;-10.41;100.00
42859;BME280;28505;56.970;40.998;2022-12-07T07:02:27;101500.16;;;-10.44;100.00
42859;BME280;28505;56.970;40.998;2022-12-07T07:07:50;101503.91;;;-10.25;100.00
42859;BME280;28505;56.970;40.998;2022-12-07T07:13:35;101492.03;;;-10.07;100.00
42859;BME280;28505;56.970;40.998;2022-12-07T07:18:58;101510.56;;;-9.78;100.00
42859;BME280;28505;56.970;40.998;2022-12-07T07:24:20;101493.50;;;-9.71;100.00
42859;BME280;28505;56.970;40.998;2022-12-07T07:29:42;101492.31;;;-9.46;100.00
42859;BME280;28505;56.970;40.998;2022-12-07T07:35:04;101503.16;;;-9.29;100.00
42859;BME280;28505;56.970;40.998;2022-12-07T07:40:27;101509.16;;;-9.17;100.00
42859;BME280;28505;56.970;40.998;2022-12-07T07:45:51;101471.63;;;-9.16;100.00
42859;BME280;28505;56.970;40.998;2022-12-07T07:51:13;101491.44;;;-8.93;100.00
42859;BME280;28505;56.970;40.998;2022-12-07T07:56:35;101496.91;;;-8.75;100.00
42859;BME280;28505;56.970;40.998;2022-12-07T08:01:57;101490.97;;;-8.56;100.00
42859;BME280;28505;56.970;40.998;2022-12-07T08:07:19;101478.84;;;-8.48;100.00
42859;BME280;28505;56.970;40.998;2022-12-07T08:12:42;101494.59;;;-8.28;100.00
42859;BME280;28505;56.970;40.998;2022-12-07T08:18:23;101452.59;;;-8.36;100.00
42859;BME280;28505;56.970;40.998;2022-12-07T08:23:45;101464.75;;;-8.16;100.00
42859;BME280;28505;56.970;40.998;2022-12-07T08:29:06;101460.63;;;-8.09;100.00
42859;BME280;28505;56.970;40.998;2022-12-07T08:34:29;101460.81;;;-8.01;100.00
42859;BME280;28505;56.970;40.998;2022-12-07T08:39:51;101469.50;;;-7.81;100.00
42859;BME280;28505;56.970;40.998;2022-12-07T08:45:15;101436.72;;;-7.94;100.00
42859;BME280;28505;56.970;40.998;2022-12-07T08:50:44;101472.13;;;-7.71;100.00
42859;BME280;28505;56.970;40.998;2022-12-07T08:56:10;101487.69;;;-7.69;100.00
42859;BME280;28505;56.970;40.998;2022-12-07T09:01:33;101452.28;;;-7.83;100.00
42859;BME280;28505;56.970;40.998;2022-12-07T09:06:56;101467.56;;;-7.69;100.00
42859;BME280;28505;56.970;40.998;2022-12-07T09:12:18;101458.78;;;-7.68;100.00
42859;BME280;28505;56.970;40.998;2022-12-07T09:17:40;101460.16;;;-7.64;100.00
42859;BME280;28505;56.970;40.998;2022-12-07T09:23:05;101458.63;;;-7.57;100.00
42859;BME280;28505;56.970;40.998;2022-12-07T09:28:28;101455.31;;;-7.59;100.00
42859;BME280;28505;56.970;40.998;2022-12-07T09:34:00;101449.53;;;-7.53;100.00
42859;BME280;28505;56.970;40.998;2022-12-07T09:39:22;101452.56;;;-7.47;100.00
42859;BME280;28505;56.970;40.998;2022-12-07T09:44:44;101454.22;;;-7.46;100.00
42859;BME280;28505;56.970;40.998;2022-12-07T09:50:13;101429.00;;;-7.67;100.00
42859;BME280;28505;56.970;40.998;2022-12-07T09:55:36;101426.38;;;-7.67;100.00
42859;BME280;28505;56.970;40.998;2022-12-07T10:01:09;101457.38;;;-7.53;100.00
42859;BME280;28505;56.970;40.998;2022-12-07T10:06:32;101447.88;;;-7.63;100.00
42859;BME280;28505;56.970;40.998;2022-12-07T10:12:09;101452.56;;;-7.67;100.00
42859;BME280;28505;56.970;40.998;2022-12-07T10:17:39;101440.44;;;-7.68;100.00
42859;BME280;28505;56.970;40.998;2022-12-07T10:23:04;101443.72;;;-7.66;100.00
42859;BME280;28505;56.970;40.998;2022-12-07T10:28:38;101431.88;;;-7.70;100.00
42859;BME280;28505;56.970;40.998;2022-12-07T10:47:07;101438.66;;;-7.77;100.00
42859;BME280;28505;56.970;40.998;2022-12-07T11:21:19;101411.75;;;-7.98;100.00
42859;BME280;28505;56.970;40.998;2022-12-07T11:38:10;101405.00;;;-8.11;100.00
42859;BME280;28505;56.970;40.998;2022-12-07T11:43:34;101389.28;;;-8.30;100.00
42859;BME280;28505;56.970;40.998;2022-12-07T11:55:05;101388.56;;;-8.52;100.00
42859;BME280;28505;56.970;40.998;2022-12-07T12:00:36;101393.81;;;-8.52;100.00
42859;BME280;28505;56.970;40.998;2022-12-07T12:05:59;101376.78;;;-8.77;100.00
42859;BME280;28505;56.970;40.998;2022-12-07T12:23:00;101419.41;;;-8.86;100.00
42859;BME280;28505;56.970;40.998;2022-12-07T12:39:35;101376.09;;;-9.40;100.00
42859;BME280;28505;56.970;40.998;2022-12-07T12:45:21;101373.56;;;-9.51;100.00
42859;BME280;28505;56.970;40.998;2022-12-07T13:02:49;101379.00;;;-9.75;100.00
42859;BME280;28505;56.970;40.998;2022-12-07T13:08:24;101399.84;;;-9.64;100.00
42859;BME280;28505;56.970;40.998;2022-12-07T13:31:04;101391.41;;;-9.88;100.00
42859;BME280;28505;56.970;40.998;2022-12-07T13:36:33;101362.13;;;-10.13;100.00
42859;BME280;28505;56.970;40.998;2022-12-07T13:42:11;101375.94;;;-10.01;100.00
42859;BME280;28505;56.970;40.998;2022-12-07T13:47:51;101348.84;;;-10.21;100.00
42859;BME280;28505;56.970;40.998;2022-12-07T13:53:19;101348.75;;;-10.20;100.00
42859;BME280;28505;56.970;40.998;2022-12-07T13:58:49;101355.72;;;-10.20;100.00
42859;BME280;28505;56.970;40.998;2022-12-07T14:04:24;101364.41;;;-10.20;100.00
42859;BME280;28505;56.970;40.998;2022-12-07T14:10:02;101370.19;;;-10.16;100.00
42859;BME280;28505;56.970;40.998;2022-12-07T14:15:31;101361.97;;;-10.32;100.00
42859;BME280;28505;56.970;40.998;2022-12-07T14:26:33;101345.19;;;-10.40;100.00
42859;BME280;28505;56.970;40.998;2022-12-07T14:31:56;101356.53;;;-10.41;100.00
42859;BME280;28505;56.970;40.998;2022-12-07T14:37:18;101362.56;;;-10.40;100.00
42859;BME280;28505;56.970;40.998;2022-12-07T14:42:41;101340.22;;;-10.54;100.00
42859;BME280;28505;56.970;40.998;2022-12-07T14:48:04;101329.59;;;-10.62;100.00
42859;BME280;28505;56.970;40.998;2022-12-07T14:53:50;101349.00;;;-10.55;100.00
42859;BME280;28505;56.970;40.998;2022-12-07T14:59:18;101365.94;;;-10.49;100.00
42859;BME280;28505;56.970;40.998;2022-12-07T15:04:40;101351.84;;;-10.58;100.00
42859;BME280;28505;56.970;40.998;2022-12-07T15:10:03;101361.66;;;-10.50;100.00
42859;BME280;28505;56.970;40.998;2022-12-07T15:15:25;101324.53;;;-10.75;100.00
42859;BME280;28505;56.970;40.998;2022-12-07T15:20:52;101349.97;;;-10.56;100.00
42859;BME280;28505;56.970;40.998;2022-12-07T15:26:14;101351.38;;;-10.63;100.00
42859;BME280;28505;56.970;40.998;2022-12-07T15:31:40;101324.19;;;-10.81;100.00
42859;BME280;28505;56.970;40.998;2022-12-07T15:37:18;101323.34;;;-10.82;100.00
42859;BME280;28505;56.970;40.998;2022-12-07T15:42:48;101331.63;;;-10.77;100.00
42859;BME280;28505;56.970;40.998;2022-12-07T15:48:11;101333.41;;;-10.77;100.00
42859;BME280;28505;56.970;40.998;2022-12-07T15:53:50;101329.16;;;-10.90;100.00
42859;BME280;28505;56.970;40.998;2022-12-07T15:59:14;101328.22;;;-10.89;100.00
42859;BME280;28505;56.970;40.998;2022-12-07T16:04:37;101321.72;;;-10.94;100.00
42859;BME280;28505;56.970;40.998;2022-12-07T16:10:00;101335.41;;;-10.92;100.00
42859;BME280;28505;56.970;40.998;2022-12-07T16:15:28;101344.31;;;-10.95;100.00
42859;BME280;28505;56.970;40.998;2022-12-07T16:20:58;101320.19;;;-11.08;100.00
42859;BME280;28505;56.970;40.998;2022-12-07T16:26:24;101328.94;;;-11.09;100.00
42859;BME280;28505;56.970;40.998;2022-12-07T16:31:54;101311.06;;;-11.14;100.00
42859;BME280;28505;56.970;40.998;2022-12-07T16:37:25;101312.25;;;-11.18;100.00
42859;BME280;28505;56.970;40.998;2022-12-07T16:42:48;101329.06;;;-11.11;100.00
42859;BME280;28505;56.970;40.998;2022-12-07T16:48:14;101330.84;;;-11.11;100.00
42859;BME280;28505;56.970;40.998;2022-12-07T16:53:38;101320.91;;;-11.17;100.00
42859;BME280;28505;56.970;40.998;2022-12-07T16:59:00;101318.41;;;-11.19;100.00
42859;BME280;28505;56.970;40.998;2022-12-07T17:04:23;101320.91;;;-11.17;100.00
42859;BME280;28505;56.970;40.998;2022-12-07T17:09:46;101309.88;;;-11.32;100.00
42859;BME280;28505;56.970;40.998;2022-12-07T17:15:15;101317.91;;;-11.35;100.00
42859;BME280;28505;56.970;40.998;2022-12-07T17:20:42;101333.78;;;-11.27;100.00
42859;BME280;28505;56.970;40.998;2022-12-07T17:31:47;101312.34;;;-11.42;100.00
42859;BME280;28505;56.970;40.998;2022-12-07T17:37:12;101324.91;;;-11.36;100.00
42859;BME280;28505;56.970;40.998;2022-12-07T17:42:34;101325.63;;;-11.34;100.00
42859;BME280;28505;56.970;40.998;2022-12-07T17:48:07;101307.38;;;-11.56;100.00
42859;BME280;28505;56.970;40.998;2022-12-07T17:53:29;101322.06;;;-11.44;100.00
42859;BME280;28505;56.970;40.998;2022-12-07T17:58:51;101309.84;;;-11.55;100.00
42859;BME280;28505;56.970;40.998;2022-12-07T18:04:13;101310.94;;;-11.57;100.00
42859;BME280;28505;56.970;40.998;2022-12-07T18:09:36;101293.28;;;-11.65;100.00
42859;BME280;28505;56.970;40.998;2022-12-07T18:14:59;101319.34;;;-11.53;100.00
42859;BME280;28505;56.970;40.998;2022-12-07T18:20:22;101302.41;;;-11.59;100.00
42859;BME280;28505;56.970;40.998;2022-12-07T18:25:51;101315.66;;;-11.51;100.00
42859;BME280;28505;56.970;40.998;2022-12-07T18:31:14;101273.53;;;-11.79;100.00
42859;BME280;28505;56.970;40.998;2022-12-07T18:36:41;101267.50;;;-11.79;100.00
42859;BME280;28505;56.970;40.998;2022-12-07T18:42:03;101297.22;;;-11.59;100.00
42859;BME280;28505;56.970;40.998;2022-12-07T18:47:26;101289.88;;;-11.65;100.00
42859;BME280;28505;56.970;40.998;2022-12-07T18:52:48;101286.44;;;-11.66;100.00
42859;BME280;28505;56.970;40.998;2022-12-07T18:58:10;101277.09;;;-11.68;100.00
42859;BME280;28505;56.970;40.998;2022-12-07T19:03:35;101290.34;;;-11.60;100.00
42859;BME280;28505;56.970;40.998;2022-12-07T19:09:01;101248.72;;;-11.83;100.00
42859;BME280;28505;56.970;40.998;2022-12-07T19:14:27;101247.53;;;-11.79;100.00
42859;BME280;28505;56.970;40.998;2022-12-07T19:19:50;101242.09;;;-11.75;100.00
42859;BME280;28505;56.970;40.998;2022-12-07T19:25:12;101244.47;;;-11.72;100.00
42859;BME280;28505;56.970;40.998;2022-12-07T19:30:37;101239.72;;;-11.67;100.00
42859;BME280;28505;56.970;40.998;2022-12-07T19:35:59;101224.47;;;-11.83;100.00
42859;BME280;28505;56.970;40.998;2022-12-07T19:41:21;101232.06;;;-11.80;100.00
42859;BME280;28505;56.970;40.998;2022-12-07T19:47:00;101236.75;;;-11.74;100.00
42859;BME280;28505;56.970;40.998;2022-12-07T19:52:25;101207.09;;;-11.83;100.00
42859;BME280;28505;56.970;40.998;2022-12-07T19:57:55;101218.69;;;-11.75;100.00
42859;BME280;28505;56.970;40.998;2022-12-07T20:03:18;101243.53;;;-11.60;100.00
42859;BME280;28505;56.970;40.998;2022-12-07T20:08:41;101214.44;;;-11.76;100.00
42859;BME280;28505;56.970;40.998;2022-12-07T20:14:06;101213.72;;;-11.79;100.00
42859;BME280;28505;56.970;40.998;2022-12-07T20:19:30;101250.38;;;-11.59;100.00
42859;BME280;28505;56.970;40.998;2022-12-07T20:24:55;101247.06;;;-11.61;100.00
42859;BME280;28505;56.970;40.998;2022-12-07T20:30:18;101239.72;;;-11.67;100.00
42859;BME280;28505;56.970;40.998;2022-12-07T20:35:40;101236.44;;;-11.69;100.00
42859;BME280;28505;56.970;40.998;2022-12-07T20:41:04;101240.44;;;-11.65;100.00
42859;BME280;28505;56.970;40.998;2022-12-07T20:46:27;101244.47;;;-11.72;100.00
42859;BME280;28505;56.970;40.998;2022-12-07T20:51:50;101245.66;;;-11.65;100.00
42859;BME280;28505;56.970;40.998;2022-12-07T20:57:12;101204.28;;;-11.91;100.00
42859;BME280;28505;56.970;40.998;2022-12-07T21:02:34;101220.91;;;-11.71;100.00
42859;BME280;28505;56.970;40.998;2022-12-07T21:07:56;101202.41;;;-11.89;100.00
42859;BME280;28505;56.970;40.998;2022-12-07T21:13:18;101210.53;;;-11.82;100.00
42859;BME280;28505;56.970;40.998;2022-12-07T21:18:41;101193.66;;;-11.88;100.00
42859;BME280;28505;56.970;40.998;2022-12-07T21:24:05;101210.88;;;-11.75;100.00
42859;BME280;28505;56.970;40.998;2022-12-07T21:29:29;101177.69;;;-11.94;100.00
42859;BME280;28505;56.970;40.998;2022-12-07T21:35:04;101180.28;;;-11.94;100.00
42859;BME280;28505;56.970;40.998;2022-12-07T21:40:26;101179.69;;;-11.98;100.00
42859;BME280;28505;56.970;40.998;2022-12-07T21:45:52;101162.78;;;-12.04;100.00
42859;BME280;28505;56.970;40.998;2022-12-07T21:51:15;101157.59;;;-12.04;100.00
42859;BME280;28505;56.970;40.998;2022-12-07T21:56:39;101199.31;;;-11.83;100.00
42859;BME280;28505;56.970;40.998;2022-12-07T22:02:37;101189.03;;;-11.84;100.00
42859;BME280;28505;56.970;40.998;2022-12-07T22:07:59;101146.25;;;-12.14;100.00
42859;BME280;28505;56.970;40.998;2022-12-07T22:13:22;101172.38;;;-11.93;100.00
42859;BME280;28505;56.970;40.998;2022-12-07T22:19:05;101145.19;;;-12.11;100.00
42859;BME280;28505;56.970;40.998;2022-12-07T22:24:27;101187.38;;;-11.85;100.00
42859;BME280;28505;56.970;40.998;2022-12-07T22:29:49;101149.78;;;-12.15;100.00
42859;BME280;28505;56.970;40.998;2022-12-07T22:35:12;101144.69;;;-12.16;100.00
42859;BME280;28505;56.970;40.998;2022-12-07T22:41:06;101179.00;;;-11.89;100.00
42859;BME280;28505;56.970;40.998;2022-12-07T22:46:28;101165.03;;;-11.99;100.00
42859;BME280;28505;56.970;40.998;2022-12-07T22:51:51;101190.34;;;-11.90;100.00
42859;BME280;28505;56.970;40.998;2022-12-07T22:57:15;101159.50;;;-12.06;100.00
42859;BME280;28505;56.970;40.998;2022-12-07T23:02:37;101176.75;;;-11.93;100.00
42859;BME280;28505;56.970;40.998;2022-12-07T23:07:59;101154.88;;;-12.02;100.00
42859;BME280;28505;56.970;40.998;2022-12-07T23:13:21;101149.56;;;-12.12;100.00
42859;BME280;28505;56.970;40.998;2022-12-07T23:18:52;101153.69;;;-12.09;100.00
42859;BME280;28505;56.970;40.998;2022-12-07T23:24:14;101170.94;;;-11.97;100.00
42859;BME280;28505;56.970;40.998;2022-12-07T23:29:36;101164.31;;;-12.01;100.00
42859;BME280;28505;56.970;40.998;2022-12-07T23:42:50;101172.13;;;-12.01;100.00
42859;BME280;28505;56.970;40.998;2022-12-07T23:48:12;101163.63;;;-12.03;100.00
42859;BME280;28505;56.970;40.998;2022-12-07T23:53:36;101158.44;;;-12.03;100.00
42859;BME280;28505;56.970;40.998;2022-12-07T23:58:59;101147.69;;;-12.10;100.00
